Time;durP1;ratioP1;P1;durP2;ratioP2;P2;SDS_P1;SDS_P2;PMS_P1;PMS_P2;Temp;Humidity;BMP_temperature;BMP_pressure;BME280_temperature;BME280_humidity;BME280_pressure;Samples;Min_cycle;Max_cycle;Signal;HPM_P1;HPM_P2
2021/10/05 00:02:00;;;;;;;14.68;8.80;;;;;;;22.12;58.61;101644.98;1827276;76;21076;-44
2021/10/05 00:04:26;;;;;;;17.37;9.00;;;;;;;22.11;58.63;101633.08;1828739;76;21142;-43
2021/10/05 00:06:52;;;;;;;14.15;8.53;;;;;;;22.14;58.59;101637.20;1822346;77;21521;-45
2021/10/05 00:09:18;;;;;;;15.03;8.28;;;;;;;22.14;58.53;101639.41;1833441;77;21153;-46
2021/10/05 00:11:44;;;;;;;15.08;8.80;;;;;;;22.14;58.49;101640.80;1835338;77;21250;-44
2021/10/05 00:14:10;;;;;;;13.22;7.78;;;;;;;22.13;58.45;101641.92;1846069;77;20826;-49
2021/10/05 00:16:36;;;;;;;15.53;8.70;;;;;;;22.12;58.37;101639.45;1788778;79;20911;-46
2021/10/05 00:19:02;;;;;;;15.03;8.53;;;;;;;22.12;58.34;101640.83;1777902;79;20952;-47
2021/10/05 00:21:28;;;;;;;12.55;8.00;;;;;;;22.11;58.29;101646.11;1787218;79;20911;-45
2021/10/05 00:23:54;;;;;;;12.35;7.40;;;;;;;22.08;58.26;101640.63;1775278;79;21857;-44
2021/10/05 00:26:20;;;;;;;13.88;7.83;;;;;;;22.08;58.25;101643.96;1849436;77;20885;-44
2021/10/05 00:28:46;;;;;;;12.90;8.23;;;;;;;22.05;58.24;101641.25;1835010;77;21077;-44
2021/10/05 00:31:12;;;;;;;11.45;7.17;;;;;;;22.04;58.22;101641.55;1835846;77;20952;-44
2021/10/05 00:33:38;;;;;;;14.58;7.70;;;;;;;22.02;58.21;101649.36;1829784;77;21043;-48
2021/10/05 00:36:07;;;;;;;13.08;7.50;;;;;;;21.99;58.21;101642.47;1841402;77;21525;-45
2021/10/05 00:38:33;;;;;;;11.08;7.37;;;;;;;21.97;58.20;101637.81;1841704;77;21064;-46
2021/10/05 00:40:59;;;;;;;13.30;7.37;;;;;;;21.94;58.22;101639.78;1789340;79;21125;-44
2021/10/05 00:43:25;;;;;;;11.85;7.95;;;;;;;21.93;58.22;101638.73;1798915;79;21030;-45
2021/10/05 00:45:51;;;;;;;12.30;7.20;;;;;;;21.92;58.25;101638.44;1789177;79;20889;-47
2021/10/05 00:48:18;;;;;;;12.68;7.70;;;;;;;21.90;58.24;101639.32;1846489;77;21208;-46
2021/10/05 00:50:44;;;;;;;11.88;7.53;;;;;;;21.88;58.25;101635.46;1844415;77;21017;-45
2021/10/05 00:53:12;;;;;;;10.72;7.72;;;;;;;21.86;58.27;101636.31;1838893;77;21075;-45
2021/10/05 00:55:38;;;;;;;11.43;7.25;;;;;;;21.84;58.27;101635.25;1840826;77;21032;-45
2021/10/05 00:58:05;;;;;;;11.10;7.80;;;;;;;21.83;58.29;101632.78;1838412;77;21107;-45
2021/10/05 01:00:31;;;;;;;12.23;7.25;;;;;;;21.81;58.28;101633.67;1788350;79;21128;-48
2021/10/05 01:02:58;;;;;;;11.83;7.50;;;;;;;21.79;58.30;101629.80;1837836;77;20929;-45
2021/10/05 01:05:24;;;;;;;15.00;6.92;;;;;;;21.78;58.31;101636.47;1842662;77;21160;-44
2021/10/05 01:07:50;;;;;;;12.20;6.45;;;;;;;21.77;58.33;101633.43;1845954;77;21032;-44
2021/10/05 01:10:18;;;;;;;13.32;6.50;;;;;;;21.78;58.34;101629.54;1840425;76;21544;-45
2021/10/05 01:12:48;;;;;;;10.55;6.17;;;;;;;21.83;58.43;101630.02;1843650;76;21319;-45
2021/10/05 01:15:15;;;;;;;12.25;6.50;;;;;;;21.85;58.51;101629.95;1825136;76;21095;-45
2021/10/05 01:17:41;;;;;;;10.23;6.45;;;;;;;21.88;58.61;101630.74;1766018;78;21180;-44
2021/10/05 01:20:09;;;;;;;14.60;8.43;;;;;;;21.91;58.65;101631.24;1826510;77;21072;-45
2021/10/05 01:22:35;;;;;;;10.23;7.12;;;;;;;21.93;58.65;101629.03;1835721;77;21040;-45
2021/10/05 01:25:08;;;;;;;10.18;6.92;;;;;;;21.94;58.61;101626.53;1834508;77;21514;-43
2021/10/05 01:27:51;;;;;;;9.50;6.80;;;;;;;21.94;58.54;101619.01;1817385;77;21095;-45
2021/10/05 01:30:19;;;;;;;11.25;7.12;;;;;;;21.95;58.46;101617.06;1832035;77;21055;-44
2021/10/05 01:32:45;;;;;;;11.05;6.75;;;;;;;21.94;58.36;101619.01;1814447;77;21091;-46
2021/10/05 01:35:12;;;;;;;11.08;6.45;;;;;;;21.93;58.31;101618.77;1821540;77;21069;-44
2021/10/05 01:37:38;;;;;;;11.00;6.78;;;;;;;21.92;58.27;101619.04;1821129;77;22381;-44
2021/10/05 01:40:06;;;;;;;11.50;6.85;;;;;;;21.90;58.22;101619.34;1821177;77;21272;-45
2021/10/05 01:42:32;;;;;;;8.98;6.50;;;;;;;21.88;58.18;101615.50;1823149;77;21005;-45
2021/10/05 01:44:58;;;;;;;9.60;6.83;;;;;;;21.86;58.17;101616.36;1820204;77;20999;-44
2021/10/05 01:47:24;;;;;;;10.13;6.47;;;;;;;21.85;58.13;101616.09;1814735;77;21092;-46
2021/10/05 01:49:51;;;;;;;11.03;7.22;;;;;;;21.83;58.12;101623.91;1839919;76;21304;-47
2021/10/05 01:52:17;;;;;;;9.58;6.45;;;;;;;21.82;58.10;101620.05;1840418;76;21130;-47
2021/10/05 01:54:43;;;;;;;9.03;6.25;;;;;;;21.80;58.10;101623.14;1825545;76;20976;-47
2021/10/05 01:57:09;;;;;;;10.28;6.85;;;;;;;21.78;58.11;101626.77;1834470;76;20997;-45
2021/10/05 01:59:35;;;;;;;8.35;6.50;;;;;;;21.76;58.09;101627.66;1829566;76;21106;-46
2021/10/05 02:02:01;;;;;;;9.73;6.05;;;;;;;21.74;58.09;101625.74;1841853;76;21123;-44
2021/10/05 02:04:27;;;;;;;8.35;5.67;;;;;;;21.72;58.09;101629.95;1841433;76;21051;-45
2021/10/05 02:06:53;;;;;;;9.55;6.35;;;;;;;21.70;58.11;101624.70;1831782;76;21015;-45
2021/10/05 02:09:20;;;;;;;8.90;6.50;;;;;;;21.69;58.08;101633.31;1835659;76;20862;-44
2021/10/05 02:11:47;;;;;;;11.43;6.70;;;;;;;21.68;58.09;101624.77;1835464;76;21506;-46
2021/10/05 02:14:13;;;;;;;10.32;6.20;;;;;;;21.66;58.12;101625.63;1830882;77;21184;-44
2021/10/05 02:16:39;;;;;;;9.33;5.85;;;;;;;21.64;58.13;101631.45;1814709;77;21627;-45
2021/10/05 02:19:06;;;;;;;8.18;6.33;;;;;;;21.61;58.12;101627.92;1827355;76;21105;-44
2021/10/05 02:21:32;;;;;;;8.28;6.55;;;;;;;21.60;58.12;101630.42;1826318;76;20972;-45
2021/10/05 02:24:40;;;;;;;8.60;5.90;;;;;;;21.60;58.14;101632.40;1832388;76;21089;-44
2021/10/05 02:26:35;;;;;;;9.75;6.35;;;;;;;21.58;58.16;101636.02;1826545;77;21144;-45
2021/10/05 02:29:01;;;;;;;11.97;6.55;;;;;;;21.56;58.16;101628.56;1823645;76;21056;-44
2021/10/05 02:31:27;;;;;;;10.78;6.28;;;;;;;21.54;58.16;101633.05;1818214;76;21109;-43
2021/10/05 02:33:53;;;;;;;11.45;6.30;;;;;;;21.53;58.17;101625.85;1823238;76;21115;-49
2021/10/05 02:36:19;;;;;;;9.08;6.62;;;;;;;21.52;58.20;101639.43;1825955;77;20991;-44
2021/10/05 02:38:45;;;;;;;7.55;5.75;;;;;;;21.51;58.18;101636.98;1832837;76;21568;-47
2021/10/05 02:41:11;;;;;;;9.30;5.60;;;;;;;21.50;58.21;101644.47;1826699;76;20875;-45
2021/10/05 02:43:38;;;;;;;9.28;6.00;;;;;;;21.50;58.20;101643.64;1830956;77;20929;-44
2021/10/05 02:46:04;;;;;;;13.13;6.17;;;;;;;21.48;58.21;101644.49;1829887;76;21423;-48
2021/10/05 02:48:30;;;;;;;9.35;5.85;;;;;;;21.47;58.22;101646.47;1827841;77;21052;-48
2021/10/05 02:50:56;;;;;;;8.88;5.85;;;;;;;21.46;58.22;101651.73;1817401;76;21325;-49
2021/10/05 02:53:22;;;;;;;7.55;5.35;;;;;;;21.45;58.22;101646.49;1829856;77;20893;-45
2021/10/05 02:55:49;;;;;;;8.40;5.62;;;;;;;21.48;58.22;101655.01;1836234;76;21024;-45
2021/10/05 02:58:16;;;;;;;6.45;4.83;;;;;;;21.51;58.28;101647.50;1831574;77;20961;-44
2021/10/05 03:00:43;;;;;;;8.40;5.30;;;;;;;21.54;58.38;101651.04;1828620;76;21445;-44
2021/10/05 03:03:09;;;;;;;9.08;5.60;;;;;;;21.57;58.49;101655.96;1834095;76;21322;-46
2021/10/05 03:05:35;;;;;;;9.38;5.05;;;;;;;21.62;58.53;101656.44;1835047;76;21582;-43
2021/10/05 03:08:03;;;;;;;7.37;4.90;;;;;;;21.64;58.52;101656.97;1820353;76;21024;-45
2021/10/05 03:10:29;;;;;;;7.75;5.17;;;;;;;21.66;58.49;101656.91;1800607;76;21083;-48
2021/10/05 03:12:55;;;;;;;8.08;5.00;;;;;;;21.70;58.44;101664.88;1848751;76;20992;-46
2021/10/05 03:15:21;;;;;;;6.83;4.95;;;;;;;21.74;58.37;101663.13;1800485;78;22060;-44
2021/10/05 03:17:47;;;;;;;6.70;4.85;;;;;;;21.78;58.26;101676.63;1810241;78;21494;-45
2021/10/05 03:20:13;;;;;;;8.30;5.53;;;;;;;21.81;58.16;101676.01;1799082;78;21021;-44
2021/10/05 03:22:39;;;;;;;6.95;5.03;;;;;;;21.85;58.05;101677.05;1798281;78;21469;-44
2021/10/05 03:25:07;;;;;;;6.40;4.42;;;;;;;21.88;57.98;101667.31;1783254;78;20957;-44
2021/10/05 03:27:35;;;;;;;6.10;4.55;;;;;;;21.90;57.89;101667.81;1786476;78;20923;-47
2021/10/05 03:30:05;;;;;;;7.97;4.75;;;;;;;21.92;57.81;101675.31;1786152;78;21010;-46
2021/10/05 03:32:31;;;;;;;6.55;4.90;;;;;;;21.94;57.73;101671.66;1784077;79;25077;-46
2021/10/05 03:34:57;;;;;;;7.95;4.83;;;;;;;21.94;57.66;101671.66;1788403;78;20883;-46
2021/10/05 03:37:23;;;;;;;6.03;4.10;;;;;;;21.97;57.61;101671.63;1791674;77;20915;-47
2021/10/05 03:39:49;;;;;;;7.05;4.53;;;;;;;21.99;57.52;101674.89;1781362;78;21215;-46
2021/10/05 03:42:15;;;;;;;6.30;4.25;;;;;;;21.99;57.48;101674.33;1789108;78;21414;-46
2021/10/05 03:44:41;;;;;;;5.70;3.40;;;;;;;22.03;57.44;101685.63;1789520;77;21042;-44
2021/10/05 03:47:08;;;;;;;3.52;2.40;;;;;;;22.02;57.38;101682.61;1789192;77;21624;-43
2021/10/05 03:49:34;;;;;;;4.90;2.87;;;;;;;22.05;57.31;101684.77;1781973;78;21035;-48
2021/10/05 03:52:00;;;;;;;4.25;2.77;;;;;;;22.04;57.29;101678.95;1790498;78;21626;-48
2021/10/05 03:54:26;;;;;;;3.42;2.70;;;;;;;22.06;57.24;101683.64;1794431;78;21111;-44
2021/10/05 03:56:52;;;;;;;3.55;2.60;;;;;;;22.07;57.20;101683.88;1797490;78;21698;-43
2021/10/05 03:59:20;;;;;;;3.75;2.52;;;;;;;22.08;57.18;101686.91;1803590;78;20944;-44
2021/10/05 04:01:46;;;;;;;3.58;2.45;;;;;;;22.09;57.16;101691.34;1812211;78;21696;-43
2021/10/05 04:04:13;;;;;;;3.65;2.70;;;;;;;22.08;57.10;101682.20;1810010;78;21106;-47
2021/10/05 04:06:40;;;;;;;3.77;2.62;;;;;;;22.10;57.09;101688.27;1798946;78;21407;-44
2021/10/05 04:09:06;;;;;;;4.25;2.90;;;;;;;22.11;57.06;101689.06;1804766;78;21193;-44
2021/10/05 04:11:34;;;;;;;3.67;2.67;;;;;;;22.13;57.02;101684.87;1798613;78;21058;-44
2021/10/05 04:14:01;;;;;;;3.22;2.52;;;;;;;22.13;57.00;101687.65;1793658;78;21032;-45
2021/10/05 04:16:27;;;;;;;3.98;2.60;;;;;;;22.15;56.99;101691.52;1780915;78;21300;-46
2021/10/05 04:18:53;;;;;;;5.30;3.30;;;;;;;22.16;56.99;101691.74;1790956;78;21009;-45
2021/10/05 04:21:19;;;;;;;4.25;2.98;;;;;;;22.18;56.94;101695.05;1780442;78;21006;-46
2021/10/05 04:23:46;;;;;;;4.58;2.80;;;;;;;22.18;56.93;101691.71;1775228;78;21130;-45
2021/10/05 04:26:12;;;;;;;4.58;3.02;;;;;;;22.20;56.91;101696.93;1820930;77;21646;-47
2021/10/05 04:28:38;;;;;;;4.45;2.95;;;;;;;22.21;56.88;101698.58;1807904;77;21160;-45
2021/10/05 04:31:04;;;;;;;5.97;3.12;;;;;;;22.22;56.88;101701.62;1825075;77;21003;-46
2021/10/05 04:33:31;;;;;;;4.83;3.10;;;;;;;22.23;56.87;101708.81;1823342;77;21033;-44
2021/10/05 04:35:57;;;;;;;5.33;3.08;;;;;;;22.23;56.86;101715.18;1830327;76;21161;-45
2021/10/05 04:38:24;;;;;;;4.03;2.72;;;;;;;22.24;56.85;101715.97;1828787;77;21016;-45
2021/10/05 04:40:50;;;;;;;3.87;2.58;;;;;;;22.25;56.85;101713.47;1825762;76;21946;-45
2021/10/05 04:43:16;;;;;;;4.47;2.70;;;;;;;22.26;56.85;101726.20;1816910;76;21068;-45
2021/10/05 04:45:44;;;;;;;3.55;2.67;;;;;;;22.26;56.86;101728.98;1831048;77;21103;-44
2021/10/05 04:48:10;;;;;;;4.97;3.12;;;;;;;22.26;56.86;101725.64;1829313;76;21555;-44
2021/10/05 04:50:36;;;;;;;4.85;3.17;;;;;;;22.27;56.85;101729.24;1840570;76;20975;-44
2021/10/05 04:53:03;;;;;;;4.08;3.20;;;;;;;22.27;56.84;101734.79;1823098;76;21022;-46
2021/10/05 04:55:29;;;;;;;6.67;4.05;;;;;;;22.26;56.81;101741.45;1828817;76;21024;-45
2021/10/05 04:57:55;;;;;;;8.65;4.12;;;;;;;22.26;56.81;101741.45;1823460;76;21503;-46
2021/10/05 05:00:21;;;;;;;7.75;4.10;;;;;;;22.26;56.78;101750.59;1832907;76;21059;-47
2021/10/05 05:02:47;;;;;;;7.40;4.58;;;;;;;22.26;56.77;101749.77;1829729;76;21619;-43
2021/10/05 05:05:13;;;;;;;8.13;4.75;;;;;;;22.25;56.72;101758.65;1816912;77;21772;-48
2021/10/05 05:07:39;;;;;;;9.50;5.12;;;;;;;22.25;56.71;101763.36;1817959;76;21126;-47
2021/10/05 05:10:06;;;;;;;12.90;5.58;;;;;;;22.25;56.66;101763.36;1829196;76;21528;-47
2021/10/05 05:12:32;;;;;;;15.85;6.35;;;;;;;22.24;56.61;101763.09;1819294;77;21091;-48
2021/10/05 05:14:59;;;;;;;15.38;5.92;;;;;;;22.24;56.58;101765.87;1830049;76;21047;-44
2021/10/05 05:17:26;;;;;;;15.55;6.53;;;;;;;22.23;56.53;101767.84;1822711;76;21075;-45
2021/10/05 05:19:52;;;;;;;19.70;7.50;;;;;;;22.23;56.51;101772.56;1820133;76;21076;-45
2021/10/05 05:22:18;;;;;;;16.87;7.25;;;;;;;22.22;56.49;101772.30;1823415;76;21138;-45
2021/10/05 05:24:44;;;;;;;21.23;7.50;;;;;;;22.22;56.51;101782.83;1826753;76;21462;-45
2021/10/05 05:27:10;;;;;;;15.20;7.08;;;;;;;22.23;56.54;101783.66;1829790;76;20991;-46
2021/10/05 05:29:36;;;;;;;10.32;5.92;;;;;;;22.22;56.55;101785.60;1835904;76;21076;-45
2021/10/05 05:32:03;;;;;;;7.97;5.10;;;;;;;22.23;56.59;101790.59;1826369;76;21949;-44
2021/10/05 05:34:29;;;;;;;8.85;5.50;;;;;;;22.22;56.63;101787.55;1827865;76;21021;-45
2021/10/05 05:36:55;;;;;;;8.48;4.78;;;;;;;22.21;56.66;101795.03;1831533;76;21024;-46
2021/10/05 05:39:21;;;;;;;9.03;4.83;;;;;;;22.21;56.68;101789.49;1820204;76;22443;-44
2021/10/05 05:41:48;;;;;;;7.70;4.55;;;;;;;22.20;56.70;101786.45;1832170;76;21178;-46
2021/10/05 05:44:14;;;;;;;13.93;5.28;;;;;;;22.21;56.74;101794.20;1824974;76;21144;-45
2021/10/05 05:46:41;;;;;;;14.20;6.10;;;;;;;22.24;56.77;101793.59;1828128;76;21130;-45
2021/10/05 05:49:07;;;;;;;34.88;11.53;;;;;;;22.29;56.85;101790.73;1826975;76;21079;-45
2021/10/05 05:51:35;;;;;;;41.88;11.30;;;;;;;22.33;56.95;101798.70;1810586;76;21007;-44
2021/10/05 05:54:01;;;;;;;26.97;8.33;;;;;;;22.37;57.09;101801.11;1833967;76;21929;-45
2021/10/05 05:56:27;;;;;;;18.85;8.03;;;;;;;22.40;57.15;101802.47;1840073;77;21219;-48
2021/10/05 05:58:55;;;;;;;16.25;6.95;;;;;;;22.40;57.16;101800.52;1825118;77;22039;-48
2021/10/05 06:01:21;;;;;;;16.35;7.00;;;;;;;22.43;57.13;101803.23;1825487;76;21115;-45
2021/10/05 06:03:51;;;;;;;17.65;6.75;;;;;;;22.42;57.12;101801.02;1825494;77;20989;-46
2021/10/05 06:06:18;;;;;;;20.97;7.37;;;;;;;22.42;57.04;101807.95;1829074;76;21128;-46
2021/10/05 06:08:44;;;;;;;15.48;5.85;;;;;;;22.42;56.98;101812.12;1830253;77;21033;-44
2021/10/05 06:11:10;;;;;;;15.90;6.53;;;;;;;22.42;56.92;101817.66;1825345;76;21044;-45
2021/10/05 06:13:37;;;;;;;17.30;6.58;;;;;;;22.41;56.86;101820.17;1836116;76;21060;-46
2021/10/05 06:16:04;;;;;;;11.80;6.10;;;;;;;22.40;56.83;101828.25;1836210;77;21110;-44
2021/10/05 06:18:30;;;;;;;16.17;6.60;;;;;;;22.38;56.78;101826.33;1827828;76;21919;-43
2021/10/05 06:20:56;;;;;;;13.83;6.22;;;;;;;22.38;56.73;101831.88;1835046;76;21018;-44
2021/10/05 06:23:22;;;;;;;14.00;6.95;;;;;;;22.37;56.71;101833.56;1830201;77;20882;-45
2021/10/05 06:25:53;;;;;;;15.13;6.80;;;;;;;22.34;56.69;101835.00;1814024;77;21112;-44
2021/10/05 06:28:16;;;;;;;13.58;6.58;;;;;;;22.31;56.65;101843.37;1809134;77;21049;-44
2021/10/05 06:30:42;;;;;;;15.55;5.70;;;;;;;22.29;56.64;101835.91;1818011;77;22022;-44
2021/10/05 06:33:08;;;;;;;9.60;5.20;;;;;;;22.28;56.63;101846.73;1816391;77;20886;-44
2021/10/05 06:35:34;;;;;;;11.25;5.87;;;;;;;22.25;56.64;101850.13;1785831;77;20956;-46
2021/10/05 06:38:00;;;;;;;10.50;5.25;;;;;;;22.23;56.63;101853.78;1829609;77;21079;-43
2021/10/05 06:40:29;;;;;;;12.18;5.53;;;;;;;22.22;56.61;101844.38;1816416;76;21091;-45
2021/10/05 06:42:55;;;;;;;13.03;5.08;;;;;;;22.20;56.61;101849.38;1827301;76;21304;-45
2021/10/05 06:45:21;;;;;;;10.78;5.87;;;;;;;22.18;56.61;101843.33;1820789;77;20873;-47
2021/10/05 06:47:47;;;;;;;13.10;5.62;;;;;;;22.16;56.63;101844.19;1802241;77;21002;-47
2021/10/05 06:50:14;;;;;;;10.60;5.80;;;;;;;22.14;56.61;101847.84;1807903;77;21045;-45
2021/10/05 06:52:40;;;;;;;11.68;5.53;;;;;;;22.12;56.62;101852.84;1806258;77;21025;-44
2021/10/05 06:55:08;;;;;;;10.43;5.22;;;;;;;22.10;56.63;101846.24;1781377;77;21125;-48
2021/10/05 06:57:34;;;;;;;10.80;5.50;;;;;;;22.09;56.64;101846.53;1809852;77;21108;-43
2021/10/05 07:00:00;;;;;;;10.65;5.90;;;;;;;22.08;56.64;101849.04;1788219;78;20911;-44
2021/10/05 07:02:26;;;;;;;9.00;4.62;;;;;;;22.06;56.66;101854.08;1830274;76;21246;-43
2021/10/05 07:04:52;;;;;;;7.97;4.85;;;;;;;22.05;56.66;101847.70;1784982;77;21010;-44
2021/10/05 07:07:18;;;;;;;8.28;5.12;;;;;;;22.04;56.67;101838.30;1804166;77;21270;-44
2021/10/05 07:09:44;;;;;;;11.43;4.97;;;;;;;22.02;56.67;101837.80;1810733;77;21097;-44
2021/10/05 07:12:10;;;;;;;9.63;4.87;;;;;;;22.01;56.68;101843.90;1804541;77;21101;-43
2021/10/05 07:14:36;;;;;;;8.43;4.90;;;;;;;21.98;56.66;101838.94;1811702;77;21166;-44
2021/10/05 07:17:03;;;;;;;12.50;4.60;;;;;;;21.97;56.69;101835.92;1809227;77;21588;-44
2021/10/05 07:19:29;;;;;;;11.73;5.28;;;;;;;21.97;56.70;101837.88;1815707;77;21210;-43
2021/10/05 07:21:55;;;;;;;8.80;4.70;;;;;;;21.95;56.69;101842.88;1811085;77;20920;-44
2021/10/05 07:24:21;;;;;;;9.15;5.10;;;;;;;21.93;56.73;101836.27;1811816;77;21038;-45
2021/10/05 07:26:47;;;;;;;9.03;4.22;;;;;;;21.92;56.71;101829.08;1788729;78;21386;-44
2021/10/05 07:29:14;;;;;;;10.00;4.75;;;;;;;21.92;56.73;101833.77;1809800;77;21069;-46
2021/10/05 07:31:40;;;;;;;6.80;4.45;;;;;;;21.90;56.71;101831.28;1797546;77;21313;-44
2021/10/05 07:34:07;;;;;;;9.18;4.50;;;;;;;21.89;56.73;101832.42;1828568;76;37673;-44
2021/10/05 07:36:33;;;;;;;11.68;4.70;;;;;;;21.88;56.74;101832.98;1822871;76;20990;-46
2021/10/05 07:38:59;;;;;;;7.60;4.30;;;;;;;21.86;56.73;101828.30;1812170;77;21057;-45
2021/10/05 07:41:27;;;;;;;7.75;4.40;;;;;;;21.87;56.75;101833.28;1833316;76;20875;-45
2021/10/05 07:43:53;;;;;;;9.18;4.72;;;;;;;21.86;56.75;101828.30;1815224;77;21123;-45
2021/10/05 07:46:20;;;;;;;6.58;3.90;;;;;;;21.85;56.76;101822.48;1821988;77;21661;-44
2021/10/05 07:48:46;;;;;;;9.18;4.72;;;;;;;21.84;56.76;101826.97;1815682;77;21041;-44
2021/10/05 07:51:12;;;;;;;8.55;3.90;;;;;;;21.83;56.76;101834.45;1826613;77;21400;-45
2021/10/05 07:53:40;;;;;;;8.55;4.25;;;;;;;21.81;56.77;101826.98;1835732;76;21001;-46
2021/10/05 07:56:07;;;;;;;8.70;4.25;;;;;;;21.82;56.78;101829.20;1823889;76;21328;-45
2021/10/05 07:58:36;;;;;;;6.45;3.58;;;;;;;21.80;56.77;101828.13;1832693;77;21033;-45
2021/10/05 08:01:04;;;;;;;6.75;3.90;;;;;;;21.80;56.79;101830.08;1825824;76;21643;-45
2021/10/05 08:03:30;;;;;;;7.33;4.10;;;;;;;21.78;56.79;101834.52;1823833;76;21056;-47
2021/10/05 08:05:56;;;;;;;5.97;3.65;;;;;;;21.78;56.80;101838.67;1827977;76;21049;-46
2021/10/05 08:08:22;;;;;;;7.70;4.17;;;;;;;21.77;56.81;101835.64;1824112;77;21284;-45
2021/10/05 08:10:48;;;;;;;7.45;4.60;;;;;;;21.78;56.80;101835.91;1826171;77;20960;-47
2021/10/05 08:13:14;;;;;;;7.35;4.40;;;;;;;21.76;56.80;101840.12;1802941;77;21496;-44
2021/10/05 08:15:40;;;;;;;8.18;3.85;;;;;;;21.76;56.80;101838.17;1802279;77;21473;-44
2021/10/05 08:18:06;;;;;;;6.35;3.90;;;;;;;21.76;56.80;101844.27;1809578;77;20895;-46
2021/10/05 08:20:32;;;;;;;5.15;3.60;;;;;;;21.75;56.80;101862.83;1802012;77;21617;-46
2021/10/05 08:22:58;;;;;;;6.12;3.75;;;;;;;21.75;56.79;101861.45;1786573;77;21202;-48
2021/10/05 08:25:25;;;;;;;5.40;3.90;;;;;;;21.75;56.80;101849.55;1801112;77;21601;-47
2021/10/05 08:27:51;;;;;;;6.28;3.67;;;;;;;21.74;56.78;101852.04;1820753;77;21124;-43
2021/10/05 08:30:18;;;;;;;5.45;3.27;;;;;;;21.73;56.78;101852.59;1803466;77;21156;-45
2021/10/05 08:32:46;;;;;;;5.75;3.60;;;;;;;21.74;56.76;101854.81;1775827;80;21535;-45
2021/10/05 08:35:12;;;;;;;5.03;3.35;;;;;;;21.74;56.76;101861.73;1765971;79;21055;-44
2021/10/05 08:37:40;;;;;;;5.70;3.67;;;;;;;21.74;56.77;101860.35;1759893;79;21016;-43
2021/10/05 08:40:07;;;;;;;7.65;3.95;;;;;;;21.73;56.76;101855.92;1754187;80;21059;-44
2021/10/05 08:42:33;;;;;;;5.92;3.67;;;;;;;21.72;56.74;101862.05;1785234;78;21445;-47
2021/10/05 08:44:59;;;;;;;7.03;3.87;;;;;;;21.73;56.75;101861.47;1798758;78;21278;-45
2021/10/05 08:47:25;;;;;;;7.30;3.60;;;;;;;21.71;56.76;101863.73;1798946;77;20845;-45
2021/10/05 08:49:51;;;;;;;6.62;3.52;;;;;;;21.72;56.75;101858.45;1780430;78;20899;-44
2021/10/05 08:52:18;;;;;;;7.97;3.87;;;;;;;21.70;56.72;101852.38;1805761;77;21125;-46
2021/10/05 08:54:44;;;;;;;6.83;3.72;;;;;;;21.71;56.73;101854.86;1783573;77;21048;-46
2021/10/05 08:57:10;;;;;;;5.62;3.45;;;;;;;21.70;56.71;101854.59;1792530;78;20980;-44
2021/10/05 08:59:36;;;;;;;5.15;3.50;;;;;;;21.71;56.71;101854.86;1784778;78;21019;-44
2021/10/05 09:02:16;;;;;;;5.22;3.30;;;;;;;21.70;56.71;101849.05;1783199;77;20891;-45
2021/10/05 09:04:44;;;;;;;5.33;3.27;;;;;;;21.69;56.68;101840.47;1784091;77;21019;-47
2021/10/05 09:07:22;;;;;;;5.47;3.25;;;;;;;21.70;56.71;101846.28;1781944;78;21065;-45
2021/10/05 09:09:58;;;;;;;4.87;3.35;;;;;;;21.70;56.69;101846.84;1807339;77;21045;-46
2021/10/05 09:12:27;;;;;;;5.42;3.62;;;;;;;21.69;56.67;101843.24;1794723;77;21169;-47
2021/10/05 09:14:54;;;;;;;4.67;3.20;;;;;;;21.70;56.66;101842.69;1827225;77;21452;-44
2021/10/05 09:17:25;;;;;;;4.80;3.22;;;;;;;21.69;56.65;101839.65;1819685;77;21075;-44
2021/10/05 09:19:53;;;;;;;4.83;3.40;;;;;;;21.68;56.65;101838.86;1815692;77;21095;-45
2021/10/05 09:22:25;;;;;;;4.92;3.10;;;;;;;21.69;56.63;101843.24;1822108;77;22000;-48
2021/10/05 09:24:54;;;;;;;5.78;3.10;;;;;;;21.69;56.64;101844.63;1812259;77;21034;-50
2021/10/05 09:27:20;;;;;;;5.25;3.40;;;;;;;21.69;56.63;101837.70;1826161;76;20992;-44
2021/10/05 09:29:50;;;;;;;5.15;3.10;;;;;;;21.69;56.61;101841.86;1829309;77;21463;-45
2021/10/05 09:32:17;;;;;;;6.08;3.20;;;;;;;21.69;56.60;101832.16;1820067;76;21490;-47
2021/10/05 09:34:51;;;;;;;5.37;3.40;;;;;;;21.70;56.56;101829.66;1831215;76;21582;-45
2021/10/05 09:37:26;;;;;;;4.60;3.17;;;;;;;21.70;56.58;101833.82;1842419;76;21087;-47
2021/10/05 09:39:57;;;;;;;4.55;2.80;;;;;;;21.70;56.55;101828.28;1831705;77;21106;-46
2021/10/05 09:42:30;;;;;;;4.80;3.15;;;;;;;21.71;56.56;101829.94;1834338;76;21102;-49
2021/10/05 09:45:06;;;;;;;7.67;3.30;;;;;;;21.71;56.55;101831.32;1832367;77;21575;-45
2021/10/05 09:47:47;;;;;;;4.72;3.02;;;;;;;21.71;56.52;101835.47;1818492;76;22477;-46
2021/10/05 09:50:28;;;;;;;4.83;3.10;;;;;;;21.70;56.51;101834.38;1826098;77;21083;-45
2021/10/05 09:52:56;;;;;;;;;;;;;;;21.71;56.48;101841.02;1837859;76;21058;-45
2021/10/05 09:55:25;;;;;;;5.15;2.95;;;;;;;21.71;56.48;101836.86;1844238;77;20605;-46
2021/10/05 10:00:32;;;;;;;4.70;2.80;;;;;;;21.73;56.46;101829.05;1847332;76;22529;-46
2021/10/05 10:02:58;;;;;;;4.33;2.80;;;;;;;21.69;56.43;101823.03;1799712;76;21150;-44
2021/10/05 10:05:26;;;;;;;4.78;3.05;;;;;;;21.69;56.43;101818.88;1814831;77;22113;-47
2021/10/05 10:07:56;;;;;;;4.35;3.10;;;;;;;21.70;56.41;101810.84;1813597;77;21035;-45
2021/10/05 10:10:27;;;;;;;3.95;2.87;;;;;;;21.70;56.39;101816.37;1803417;77;21108;-45
2021/10/05 10:12:58;;;;;;;4.95;2.50;;;;;;;21.70;56.38;101814.43;1812156;77;21012;-45
2021/10/05 10:15:27;;;;;;;5.80;2.77;;;;;;;21.71;56.36;101818.03;1808169;77;21029;-46
2021/10/05 10:18:10;;;;;;;5.35;3.02;;;;;;;21.72;56.35;101821.89;1812530;77;21447;-45
2021/10/05 10:20:41;;;;;;;4.72;2.90;;;;;;;21.72;56.34;101817.73;1748593;80;20974;-46
2021/10/05 10:23:25;;;;;;;6.40;2.92;;;;;;;21.72;56.30;101811.38;1798908;78;21089;-46
2021/10/05 10:26:06;;;;;;;3.45;2.12;;;;;;;21.72;56.30;101805.83;1795738;79;21444;-45
2021/10/05 10:28:37;;;;;;;;;;;;;;;21.72;56.26;101799.73;1800039;78;21535;-45
2021/10/05 10:31:07;;;;;;;4.25;2.47;;;;;;;21.72;56.28;101805.83;1795169;78;21186;-45
2021/10/05 10:33:50;;;;;;;6.17;2.85;;;;;;;21.71;56.27;101805.00;1800287;78;21629;-47
2021/10/05 10:36:30;;;;;;;5.37;3.05;;;;;;;21.71;56.29;101805.56;1796739;78;21042;-44
2021/10/05 10:39:14;;;;;;;5.80;2.62;;;;;;;21.72;56.27;101800.30;1779569;78;21076;-47
2021/10/05 10:41:55;;;;;;;4.53;2.85;;;;;;;21.71;56.26;101801.41;1795708;78;21062;-49
2021/10/05 10:44:29;;;;;;;;;;;;;;;21.72;56.24;101800.30;1804561;78;21154;-47
2021/10/05 10:47:14;;;;;;;4.00;2.70;;;;;;;21.72;56.23;101805.27;1798525;78;20388;-46
2021/10/05 10:49:55;;;;;;;3.92;2.65;;;;;;;21.72;56.24;101803.06;1799213;78;21013;-50
2021/10/05 10:52:31;;;;;;;;;;;;;;;21.72;56.22;101805.83;1785171;79;21230;-45
2021/10/05 10:54:58;;;;;;;4.10;2.50;;;;;;;21.72;56.22;101803.06;1791327;78;20176;-45
2021/10/05 10:57:40;;;;;;;4.03;2.58;;;;;;;21.70;56.23;101792.27;1801122;79;21976;-48
2021/10/05 11:00:23;;;;;;;3.67;2.42;;;;;;;21.71;56.22;101792.55;1790630;78;21482;-46
2021/10/05 11:02:54;;;;;;;3.00;2.40;;;;;;;21.71;56.21;101793.92;1784987;78;21438;-44
2021/10/05 11:05:24;;;;;;;3.87;2.55;;;;;;;21.73;56.20;101797.20;1786221;78;21460;-48
2021/10/05 11:07:58;;;;;;;5.50;2.85;;;;;;;21.73;56.19;101795.81;1786231;78;21050;-45
2021/10/05 11:10:30;;;;;;;4.80;2.47;;;;;;;21.75;56.18;101800.51;1786649;78;21127;-45
2021/10/05 11:12:59;;;;;;;4.45;2.70;;;;;;;21.75;56.17;101800.51;1785945;78;21054;-44
2021/10/05 11:15:46;;;;;;;3.95;2.42;;;;;;;21.76;56.15;101792.47;1783907;78;21024;-47
2021/10/05 11:18:16;;;;;;;3.65;2.72;;;;;;;21.77;56.13;101792.70;1785076;78;21526;-45
2021/10/05 11:20:51;;;;;;;4.80;3.10;;;;;;;21.78;56.11;101787.44;1785884;78;21054;-44
2021/10/05 11:23:20;;;;;;;4.10;2.60;;;;;;;21.79;55.97;101784.93;1787752;79;21055;-47
2021/10/05 11:25:55;;;;;;;3.83;2.77;;;;;;;21.80;56.11;101774.67;1783828;78;21085;-45
2021/10/05 11:28:25;;;;;;;4.05;2.67;;;;;;;21.82;56.08;101779.33;1787626;78;21112;-46
2021/10/05 11:31:05;;;;;;;4.03;2.67;;;;;;;21.81;56.07;101774.35;1788978;78;21094;-44